Time;durP1;ratioP1;P1;durP2;ratioP2;P2;SDS_P1;SDS_P2;PMS_P1;PMS_P2;Temp;Humidity;BMP_temperature;BMP_pressure;BME280_temperature;BME280_humidity;BME280_pressure;Samples;Min_cycle;Max_cycle;Signal;HPM_P1;HPM_P2
2021/08/01 05:14:02;;;;;;;;;;;;;;;;;;;;;
2021/08/01 05:47:23;;;;;;;;;;;;;;;;;;;;;
2021/08/01 06:10:53;;;;;;;;;;;;;;;;;;;;;
2021/08/01 07:56:17;;;;;;;;;;;;;;;;;;;;;
2021/08/01 08:09:56;;;;;;;4.60;1.92;;;20.90;83.60;;;;;;4887552;29;20093;-92
2021/08/01 08:20:12;;;;;;;3.85;1.67;;;21.20;84.70;;;;;;4850309;29;20038;-90
2021/08/01 09:07:28;;;;;;;2.50;1.42;;;21.50;83.80;;;;;;5004473;28;20096;-89
2021/08/01 09:14:14;;;;;;;2.13;1.40;;;21.50;83.90;;;;;;5013965;28;20452;-91
2021/08/01 09:28:27;;;;;;;;;;;;;;;;;;;;;
2021/08/01 09:52:11;;;;;;;2.10;1.35;;;22.70;80.00;;;;;;4885431;29;20071;-90
2021/08/01 11:24:03;;;;;;;3.13;1.92;;;21.90;83.50;;;;;;4884400;29;20482;-90
2021/08/01 11:30:08;;;;;;;4.05;1.83;;;21.60;87.40;;;;;;4998945;28;20046;-89
2021/08/01 11:36:15;;;;;;;2.80;2.08;;;21.30;90.80;;;;;;4971879;28;20041;-90
2021/08/01 11:38:59;;;;;;;2.92;2.20;;;21.30;90.40;;;;;;5027349;28;20050;-90
2021/08/01 11:41:55;;;;;;;3.17;2.30;;;21.20;91.00;;;;;;5015307;28;20035;-89
2021/08/01 11:47:48;;;;;;;4.15;2.10;;;21.50;89.90;;;;;;4991310;28;20769;-89
2021/08/01 11:50:37;;;;;;;3.72;2.20;;;21.70;90.80;;;;;;4998109;28;20038;-90
2021/08/01 11:53:25;;;;;;;2.15;1.83;;;21.90;90.40;;;;;;4998382;28;20046;-90
2021/08/01 11:56:20;;;;;;;2.00;1.55;;;22.10;88.50;;;;;;5022890;28;20094;-90
2021/08/01 11:59:16;;;;;;;2.42;1.45;;;22.40;87.90;;;;;;5009553;28;20034;-90
2021/08/01 12:02:14;;;;;;;9.40;2.40;;;22.50;87.60;;;;;;5012198;28;20046;-89
2021/08/01 12:05:08;;;;;;;5.72;2.17;;;22.70;86.80;;;;;;4998620;28;20280;-90
2021/08/01 12:08:27;;;;;;;3.17;1.98;;;22.80;88.60;;;;;;5014609;28;20575;-90
2021/08/01 12:11:17;;;;;;;5.43;2.35;;;22.80;89.10;;;;;;4998304;28;20050;-90
2021/08/01 12:14:09;;;;;;;4.25;2.22;;;22.90;87.70;;;;;;4997458;28;20039;-90
2021/08/01 12:17:21;;;;;;;6.85;2.45;;;23.00;85.30;;;;;;5009799;28;20033;-91
2021/08/01 12:19:56;;;;;;;4.43;2.40;;;23.10;83.60;;;;;;5028026;28;20065;-90
2021/08/01 12:22:37;;;;;;;2.88;1.92;;;23.20;84.20;;;;;;5002065;28;20045;-89
2021/08/01 12:25:31;;;;;;;3.92;2.08;;;23.20;84.80;;;;;;4999904;28;20121;-90
2021/08/01 12:28:14;;;;;;;2.83;2.30;;;23.40;86.30;;;;;;5015532;28;20062;-90
2021/08/01 12:34:39;;;;;;;1.92;1.50;;;23.50;85.80;;;;;;5009692;28;20043;-90
2021/08/01 12:40:59;;;;;;;3.70;1.95;;;23.80;82.40;;;;;;5003612;28;20025;-93
2021/08/01 12:51:03;;;;;;;;;;;;;;;;;;;;;
2021/08/01 13:07:35;;;;;;;;;;;;;;;;;;;;;
2021/08/01 13:14:16;;;;;;;3.20;1.67;;;24.90;79.10;;;;;;5003545;28;20061;-92
2021/08/01 13:17:22;;;;;;;2.63;1.95;;;24.90;75.90;;;;;;5017594;28;20042;-90
2021/08/01 13:20:45;;;;;;;3.03;1.75;;;24.90;74.30;;;;;;4974729;28;20049;-89
2021/08/01 13:27:52;;;;;;;3.15;1.67;;;24.60;74.40;;;;;;4942768;29;20102;-91
2021/08/01 13:38:04;;;;;;;3.00;1.73;;;24.50;76.90;;;;;;4915243;29;20028;-90
2021/08/01 13:44:35;;;;;;;7.82;2.58;;;24.40;75.50;;;;;;4863265;29;20033;-91
2021/08/01 13:58:15;;;;;;;2.67;2.25;;;24.40;78.50;;;;;;4903551;29;20036;-91
2021/08/01 14:00:40;;;;;;;3.95;2.25;;;24.40;76.60;;;;;;4899853;28;20051;-89
2021/08/01 14:03:06;;;;;;;3.05;1.85;;;24.30;77.50;;;;;;5025902;28;20038;-90
2021/08/01 14:05:32;;;;;;;3.15;1.83;;;24.30;76.40;;;;;;5031797;28;20061;-86
2021/08/01 14:07:57;;;;;;;7.50;2.65;;;24.20;76.60;;;;;;5008382;28;20046;-87
2021/08/01 14:10:23;;;;;;;2.17;1.60;;;24.10;77.50;;;;;;5015569;28;20042;-86
2021/08/01 14:12:50;;;;;;;5.10;1.98;;;24.10;77.20;;;;;;5010434;28;20050;-87
2021/08/01 14:15:16;;;;;;;3.80;2.00;;;24.00;75.40;;;;;;5016358;28;20124;-86
2021/08/01 14:17:42;;;;;;;2.25;1.90;;;24.00;75.60;;;;;;5019435;28;20034;-86
2021/08/01 14:20:09;;;;;;;2.60;1.77;;;24.00;77.30;;;;;;5040785;28;20056;-87
2021/08/01 14:22:36;;;;;;;8.77;4.70;;;23.90;77.10;;;;;;5016911;28;20099;-87
2021/08/01 14:25:03;;;;;;;4.30;3.08;;;23.90;76.30;;;;;;5015823;28;20045;-87
2021/08/01 14:27:29;;;;;;;2.80;2.10;;;23.90;76.80;;;;;;5016051;28;20044;-85
2021/08/01 14:29:58;;;;;;;4.50;2.45;;;23.90;76.70;;;;;;5013826;28;20042;-86
2021/08/01 14:32:25;;;;;;;7.30;2.00;;;23.80;76.10;;;;;;5006747;28;20041;-86
2021/08/01 14:35:04;;;;;;;4.40;1.92;;;23.70;77.30;;;;;;5018442;28;20100;-92
2021/08/01 14:37:30;;;;;;;1.80;1.65;;;23.70;77.70;;;;;;5019201;28;20133;-91
2021/08/01 14:39:56;;;;;;;2.45;2.13;;;23.60;78.40;;;;;;5027761;28;20057;-91
2021/08/01 14:42:22;;;;;;;4.20;1.80;;;23.50;79.10;;;;;;5023715;28;20037;-90
2021/08/01 14:44:48;;;;;;;2.30;1.67;;;23.40;79.20;;;;;;5034689;28;20045;-90
2021/08/01 14:50:39;;;;;;;2.90;1.63;;;23.10;80.80;;;;;;5017732;28;20706;-86
2021/08/01 14:53:01;;;;;;;3.58;2.25;;;23.10;81.20;;;;;;5006902;28;20046;-86
2021/08/01 14:55:34;;;;;;;3.03;1.73;;;23.20;83.10;;;;;;5025122;28;20440;-87
2021/08/01 14:58:21;;;;;;;3.25;1.85;;;23.20;82.40;;;;;;5016614;28;20068;-87
2021/08/01 15:00:53;;;;;;;4.63;1.75;;;23.20;80.90;;;;;;5009347;28;20064;-86
2021/08/01 15:03:34;;;;;;;2.22;1.83;;;23.30;80.30;;;;;;5016962;28;20038;-88
2021/08/01 15:06:01;;;;;;;2.50;2.00;;;23.30;81.50;;;;;;5017095;28;20099;-87
2021/08/01 15:08:41;;;;;;;3.50;1.65;;;23.40;80.10;;;;;;5015850;28;20030;-87
2021/08/01 15:11:19;;;;;;;5.75;1.88;;;23.30;79.50;;;;;;5003947;28;20270;-88
2021/08/01 15:14:14;;;;;;;3.97;1.95;;;23.30;80.50;;;;;;5016362;28;20191;-86
2021/08/01 15:16:43;;;;;;;2.63;1.90;;;23.30;81.00;;;;;;5016198;28;20121;-86
2021/08/01 15:20:20;;;;;;;5.57;2.17;;;23.30;82.30;;;;;;5018332;28;20310;-91
2021/08/01 15:23:11;;;;;;;2.05;1.70;;;23.30;82.70;;;;;;5018127;28;20481;-92
2021/08/01 15:25:36;;;;;;;2.42;1.48;;;23.40;82.30;;;;;;5018531;28;20096;-90
2021/08/01 15:28:05;;;;;;;1.50;1.35;;;23.40;82.60;;;;;;5018219;28;20038;-94
2021/08/01 15:30:38;;;;;;;2.08;1.30;;;23.50;83.20;;;;;;5044729;28;20038;-90
2021/08/01 15:33:13;;;;;;;1.50;1.02;;;23.50;81.60;;;;;;5026671;28;20149;-92
2021/08/01 15:36:09;;;;;;;2.45;1.10;;;23.60;81.60;;;;;;5017895;28;20413;-92
2021/08/01 15:38:47;;;;;;;1.83;1.20;;;23.60;81.30;;;;;;4992431;28;20085;-88
2021/08/01 15:41:40;;;;;;;3.17;1.10;;;23.80;81.50;;;;;;5014648;28;20120;-93
2021/08/01 15:44:06;;;;;;;1.25;1.10;;;23.80;81.80;;;;;;4960939;28;20394;-88
2021/08/01 15:47:07;;;;;;;1.13;0.85;;;23.90;81.40;;;;;;5018219;28;20093;-90
2021/08/01 15:49:39;;;;;;;1.60;1.10;;;24.00;82.20;;;;;;5013789;28;20034;-90
2021/08/01 15:52:21;;;;;;;2.40;1.00;;;24.10;80.60;;;;;;5017694;28;20144;-90
2021/08/01 15:55:17;;;;;;;1.70;0.60;;;24.30;78.10;;;;;;5033796;28;20401;-90
2021/08/01 15:57:49;;;;;;;0.95;0.65;;;24.40;79.60;;;;;;5012871;28;20045;-90
2021/08/01 16:00:57;;;;;;;1.27;1.05;;;24.40;77.40;;;;;;5040684;28;20030;-91
2021/08/01 17:01:13;;;;;;;9.30;2.30;;;22.10;86.20;;;;;;5020641;28;20041;-91
2021/08/01 17:03:53;;;;;;;7.63;2.80;;;21.80;90.70;;;;;;5011987;28;20045;-93
2021/08/01 17:06:28;;;;;;;4.07;2.05;;;21.40;91.70;;;;;;5014262;28;20386;-92
2021/08/01 17:08:55;;;;;;;5.50;2.17;;;21.20;92.40;;;;;;5027629;28;20046;-92
2021/08/01 17:11:32;;;;;;;4.75;2.70;;;21.00;92.90;;;;;;5035035;28;20034;-91
2021/08/01 17:13:59;;;;;;;5.65;2.92;;;20.90;93.80;;;;;;5028614;28;20033;-92
2021/08/01 17:16:26;;;;;;;6.07;2.67;;;20.80;94.60;;;;;;5037426;28;20107;-91
2021/08/01 17:18:51;;;;;;;4.65;2.33;;;20.60;94.40;;;;;;5037293;28;20037;-91
2021/08/01 17:21:19;;;;;;;4.20;2.45;;;20.60;94.50;;;;;;5021394;28;20095;-92
2021/08/01 17:23:45;;;;;;;2.58;2.15;;;20.60;94.60;;;;;;5012461;28;20145;-91
2021/08/01 17:26:18;;;;;;;6.10;3.30;;;20.60;95.20;;;;;;5014150;28;20034;-92
2021/08/01 17:28:48;;;;;;;3.33;2.63;;;20.60;95.30;;;;;;5017356;28;20584;-91
2021/08/01 17:31:18;;;;;;;4.70;2.60;;;20.60;95.40;;;;;;5011355;28;20042;-91
2021/08/01 17:34:04;;;;;;;5.78;2.75;;;20.60;95.30;;;;;;5032889;28;20110;-90
2021/08/01 17:36:53;;;;;;;5.53;3.63;;;20.60;95.50;;;;;;5023658;28;20390;-92
2021/08/01 17:39:36;;;;;;;7.30;2.97;;;20.60;95.90;;;;;;5024436;28;20038;-91
2021/08/01 17:42:11;;;;;;;;;;;20.70;95.90;;;;;;5022412;28;20102;-92
2021/08/01 17:44:50;;;;;;;5.20;3.10;;;20.80;95.90;;;;;;5014282;28;20135;-92
2021/08/01 17:47:21;;;;;;;5.20;4.13;;;20.90;95.40;;;;;;5028668;28;20099;-92
2021/08/01 17:49:46;;;;;;;7.35;4.15;;;21.00;95.30;;;;;;5030885;28;20038;-92
2021/08/01 17:52:14;;;;;;;5.05;3.60;;;21.10;95.20;;;;;;5019887;28;20053;-92
2021/08/01 17:54:41;;;;;;;5.20;3.50;;;21.10;95.50;;;;;;5020756;28;20089;-91
2021/08/01 17:57:11;;;;;;;8.10;3.60;;;21.20;95.30;;;;;;5020353;28;20045;-92
2021/08/01 17:59:38;;;;;;;4.35;3.47;;;21.20;95.30;;;;;;5014435;28;20040;-91
2021/08/01 18:02:04;;;;;;;5.10;3.97;;;21.20;95.40;;;;;;5024869;28;20128;-91
2021/08/01 18:04:31;;;;;;;6.63;3.85;;;21.20;95.50;;;;;;5026333;28;20457;-91
2021/08/01 18:07:10;;;;;;;6.82;4.20;;;21.20;95.70;;;;;;5007801;28;20038;-92
2021/08/01 18:09:56;;;;;;;6.10;4.38;;;21.20;96.10;;;;;;5026706;28;20073;-91
2021/08/01 18:13:02;;;;;;;7.00;4.22;;;21.20;96.20;;;;;;5034770;28;20333;-91
2021/08/01 18:15:33;;;;;;;5.65;3.67;;;21.10;96.50;;;;;;5035153;28;20042;-91
2021/08/01 18:18:00;;;;;;;6.22;4.70;;;21.00;96.50;;;;;;5050718;28;20120;-91
2021/08/01 18:20:27;;;;;;;5.50;4.13;;;21.00;96.60;;;;;;5019989;28;20317;-91
2021/08/01 18:22:58;;;;;;;4.85;3.88;;;20.90;96.60;;;;;;5019088;28;20120;-91
2021/08/01 18:25:24;;;;;;;5.28;3.85;;;20.80;96.60;;;;;;5019354;28;20037;-91
2021/08/01 18:27:49;;;;;;;6.72;3.83;;;20.80;96.50;;;;;;5015513;28;20049;-90
2021/08/01 18:30:20;;;;;;;6.03;3.33;;;20.70;96.40;;;;;;5018681;28;20038;-91
2021/08/01 18:32:46;;;;;;;6.97;3.67;;;20.70;96.10;;;;;;5026418;28;20046;-91
2021/08/01 18:35:16;;;;;;;6.05;3.75;;;20.60;95.90;;;;;;5026252;28;20072;-90
2021/08/01 18:37:44;;;;;;;6.57;3.63;;;20.60;95.90;;;;;;5036426;28;20030;-91
2021/08/01 18:40:13;;;;;;;3.67;3.05;;;20.60;95.80;;;;;;5030165;28;20093;-91
2021/08/01 18:42:39;;;;;;;4.35;3.15;;;20.40;95.70;;;;;;5018908;28;20103;-92
2021/08/01 18:45:05;;;;;;;6.28;3.88;;;20.40;95.80;;;;;;5028737;28;20017;-91
2021/08/01 18:47:31;;;;;;;6.22;3.80;;;20.30;95.80;;;;;;5020784;28;20085;-92
2021/08/01 18:50:02;;;;;;;5.55;3.85;;;20.30;95.90;;;;;;5018609;28;20108;-92
2021/08/01 18:52:52;;;;;;;4.40;3.75;;;20.20;96.10;;;;;;5044145;28;20022;-93
2021/08/01 18:55:29;;;;;;;4.75;3.20;;;20.10;96.20;;;;;;5031481;28;20045;-91
2021/08/01 18:58:01;;;;;;;7.47;3.45;;;20.10;96.40;;;;;;5033282;28;20041;-92
2021/08/01 19:00:45;;;;;;;4.28;2.70;;;20.00;96.40;;;;;;5021893;28;20034;-92
2021/08/01 19:03:21;;;;;;;4.97;3.10;;;19.90;95.70;;;;;;5028466;28;20042;-93
2021/08/01 19:05:55;;;;;;;8.43;3.38;;;19.90;95.70;;;;;;5019712;28;20033;-92
2021/08/01 19:09:08;;;;;;;3.92;3.42;;;19.90;96.00;;;;;;5020030;28;20029;-92
2021/08/01 19:11:42;;;;;;;6.22;4.40;;;19.80;96.10;;;;;;5028670;28;20105;-92
2021/08/01 19:14:13;;;;;;;6.90;4.43;;;19.80;96.00;;;;;;5035306;28;20352;-92
2021/08/01 19:17:05;;;;;;;5.53;4.18;;;19.70;96.10;;;;;;5023268;28;20397;-92
2021/08/01 19:19:43;;;;;;;8.10;4.28;;;19.70;96.00;;;;;;5025489;28;20033;-92
2021/08/01 19:22:24;;;;;;;6.20;4.03;;;19.70;96.00;;;;;;5018746;28;20041;-93
2021/08/01 19:25:02;;;;;;;10.57;3.58;;;19.60;96.00;;;;;;4999878;28;20198;-93
2021/08/01 19:27:54;;;;;;;8.93;3.75;;;19.60;95.90;;;;;;5019191;28;20044;-93
2021/08/01 19:30:25;;;;;;;9.65;3.75;;;19.60;96.10;;;;;;5016115;28;20412;-92
2021/08/01 19:33:05;;;;;;;4.88;3.97;;;19.60;96.20;;;;;;5024439;28;20056;-91
2021/08/01 19:35:34;;;;;;;6.28;4.63;;;19.60;96.40;;;;;;5037775;28;20040;-91
2021/08/01 19:38:02;;;;;;;4.97;4.03;;;19.60;96.70;;;;;;5019811;28;20441;-92
2021/08/01 19:40:28;;;;;;;6.85;3.50;;;19.50;97.10;;;;;;5042422;28;20014;-91
2021/08/01 19:42:56;;;;;;;5.03;4.20;;;19.50;97.40;;;;;;5027723;28;20121;-91
2021/08/01 19:45:22;;;;;;;5.60;3.65;;;19.40;97.40;;;;;;5023891;28;20041;-90
2021/08/01 19:47:50;;;;;;;6.68;3.63;;;19.40;97.50;;;;;;5022970;28;20038;-91
2021/08/01 19:50:20;;;;;;;5.72;3.97;;;19.40;97.50;;;;;;5028724;28;20045;-90
2021/08/01 19:52:47;;;;;;;4.47;3.97;;;19.40;97.50;;;;;;5026848;28;20041;-90
2021/08/01 19:55:14;;;;;;;4.40;3.72;;;19.30;97.60;;;;;;5016829;28;20116;-89
2021/08/01 19:57:40;;;;;;;6.28;4.63;;;19.20;97.60;;;;;;5025745;28;20041;-90
2021/08/01 20:00:08;;;;;;;7.03;4.32;;;19.20;97.70;;;;;;5023518;28;20042;-88
2021/08/01 20:02:38;;;;;;;8.18;4.38;;;19.20;97.80;;;;;;5054348;28;20071;-90
2021/08/01 20:05:05;;;;;;;5.40;4.10;;;19.10;97.90;;;;;;5026155;28;20042;-89
2021/08/01 20:07:30;;;;;;;7.57;3.83;;;19.10;98.00;;;;;;5029513;28;20038;-90
2021/08/01 20:09:56;;;;;;;6.75;4.32;;;19.00;98.00;;;;;;5025667;28;20044;-89
2021/08/01 20:12:25;;;;;;;6.03;4.50;;;19.00;98.00;;;;;;5023739;28;20073;-88
2021/08/01 20:14:50;;;;;;;5.65;4.05;;;19.00;98.10;;;;;;5025203;28;20052;-88
2021/08/01 20:17:16;;;;;;;5.15;3.90;;;18.90;98.00;;;;;;5026296;28;20112;-89
2021/08/01 20:19:41;;;;;;;5.70;3.40;;;18.90;98.00;;;;;;5035938;28;20057;-90
2021/08/01 20:22:16;;;;;;;6.28;4.20;;;18.90;98.10;;;;;;5026787;28;20041;-91
2021/08/01 20:24:44;;;;;;;3.83;3.35;;;18.80;98.10;;;;;;5023886;28;20048;-89
2021/08/01 20:27:13;;;;;;;7.63;3.90;;;18.80;98.10;;;;;;5024101;28;20073;-88
2021/08/01 20:29:39;;;;;;;4.57;3.80;;;18.80;98.10;;;;;;5025556;28;20392;-89
2021/08/01 20:32:05;;;;;;;7.30;3.60;;;18.80;98.10;;;;;;5025034;28;20041;-89
2021/08/01 20:34:31;;;;;;;4.43;3.80;;;18.70;98.10;;;;;;5042356;28;20033;-89
2021/08/01 20:36:56;;;;;;;4.65;3.60;;;18.70;98.00;;;;;;5046009;28;20093;-89
2021/08/01 20:39:24;;;;;;;5.78;3.92;;;18.70;98.00;;;;;;5035444;28;20435;-88
2021/08/01 20:41:49;;;;;;;5.80;3.72;;;18.70;98.00;;;;;;5037592;28;20037;-88
2021/08/01 20:44:15;;;;;;;5.68;3.88;;;18.70;97.90;;;;;;5034182;28;20674;-89
2021/08/01 20:46:40;;;;;;;5.90;3.83;;;18.70;97.90;;;;;;5035970;28;20042;-89
2021/08/01 20:49:06;;;;;;;5.18;3.95;;;18.70;97.90;;;;;;5044153;28;20446;-89
2021/08/01 20:51:33;;;;;;;4.28;3.85;;;18.60;97.90;;;;;;5035113;28;20139;-89
2021/08/01 20:53:58;;;;;;;5.30;3.97;;;18.60;97.90;;;;;;5027404;28;20037;-89
2021/08/01 20:56:24;;;;;;;8.10;3.75;;;18.70;97.90;;;;;;5035788;28;20301;-89
2021/08/01 20:58:50;;;;;;;7.03;3.50;;;18.60;97.30;;;;;;5021672;28;20049;-88
2021/08/01 21:01:16;;;;;;;5.05;3.70;;;18.60;97.30;;;;;;5025127;28;20393;-89
2021/08/01 21:03:42;;;;;;;4.00;3.60;;;18.60;97.30;;;;;;5022452;28;20038;-89
2021/08/01 21:06:08;;;;;;;4.50;3.67;;;18.60;97.30;;;;;;5043868;28;20029;-89
2021/08/01 21:08:33;;;;;;;5.25;3.80;;;18.60;97.30;;;;;;5035141;28;20041;-88
2021/08/01 21:10:59;;;;;;;5.00;3.80;;;18.60;97.30;;;;;;5022653;28;20033;-89
2021/08/01 21:13:25;;;;;;;4.05;3.60;;;18.60;97.30;;;;;;5042712;28;20296;-89
2021/08/01 21:15:51;;;;;;;4.97;3.97;;;18.50;97.30;;;;;;5023371;28;20041;-90
2021/08/01 21:18:17;;;;;;;4.15;3.70;;;18.50;97.30;;;;;;5034140;28;20037;-90
2021/08/01 21:20:43;;;;;;;4.07;3.35;;;18.50;97.20;;;;;;5020983;28;20052;-90
2021/08/01 21:23:08;;;;;;;5.55;4.30;;;18.50;97.10;;;;;;5025532;28;20105;-89
2021/08/01 21:25:34;;;;;;;5.18;4.60;;;18.50;97.00;;;;;;5022868;28;20041;-89
2021/08/01 21:28:00;;;;;;;4.55;3.40;;;18.40;96.90;;;;;;5041175;28;20033;-89
2021/08/01 21:30:28;;;;;;;4.57;3.95;;;18.40;96.80;;;;;;5041447;28;20053;-90
2021/08/01 21:32:54;;;;;;;4.32;3.92;;;18.40;96.80;;;;;;5029590;28;20314;-89
2021/08/01 21:35:20;;;;;;;4.07;3.65;;;18.40;96.90;;;;;;5040415;28;20038;-90
2021/08/01 21:37:45;;;;;;;5.35;3.83;;;18.40;97.10;;;;;;5020965;28;20120;-90
2021/08/01 21:40:12;;;;;;;5.40;4.10;;;18.30;97.20;;;;;;5020415;28;20041;-89
2021/08/01 21:42:37;;;;;;;5.25;4.70;;;18.30;97.20;;;;;;5037254;28;20041;-89
2021/08/01 21:45:04;;;;;;;4.32;3.92;;;18.30;97.30;;;;;;5020518;28;20310;-88
2021/08/01 21:47:30;;;;;;;4.03;3.63;;;18.20;97.30;;;;;;5051095;28;20037;-89
2021/08/01 21:49:55;;;;;;;5.07;4.07;;;18.20;97.40;;;;;;5033717;28;20034;-91
2021/08/01 21:52:21;;;;;;;5.07;3.78;;;18.10;97.40;;;;;;5033440;28;20045;-90
2021/08/01 21:54:47;;;;;;;4.88;4.22;;;18.10;97.50;;;;;;5037701;28;20087;-90
2021/08/01 21:57:13;;;;;;;8.07;4.63;;;18.00;97.60;;;;;;5032932;28;20604;-90
2021/08/01 21:59:38;;;;;;;3.95;3.40;;;18.00;97.70;;;;;;5019716;28;20034;-90
2021/08/01 22:02:05;;;;;;;4.65;4.15;;;18.00;97.80;;;;;;5032986;28;20041;-91
2021/08/01 22:04:49;;;;;;;4.93;4.20;;;17.90;97.90;;;;;;5023932;28;20041;-90
2021/08/01 22:07:16;;;;;;;4.70;4.28;;;17.90;97.90;;;;;;5025734;28;20042;-90
2021/08/01 22:09:43;;;;;;;4.90;4.40;;;17.80;98.00;;;;;;5020880;28;20042;-90
2021/08/01 22:12:10;;;;;;;6.15;4.20;;;17.80;98.00;;;;;;5026725;28;20467;-91
2021/08/01 22:14:37;;;;;;;12.15;5.43;;;17.80;98.10;;;;;;5020528;28;20041;-90
2021/08/01 22:17:05;;;;;;;5.30;4.07;;;17.80;98.10;;;;;;5019749;28;20038;-90
2021/08/01 22:19:36;;;;;;;5.22;4.72;;;17.80;98.20;;;;;;5044537;28;20029;-89
2021/08/01 22:22:03;;;;;;;6.47;5.47;;;17.80;98.30;;;;;;5015005;28;20045;-89
2021/08/01 22:24:29;;;;;;;6.10;4.75;;;17.80;98.50;;;;;;5033875;28;20048;-91
2021/08/01 22:26:57;;;;;;;8.98;4.45;;;17.80;98.50;;;;;;5020953;28;20046;-91
2021/08/01 22:29:25;;;;;;;7.10;5.00;;;17.80;98.50;;;;;;5019672;28;20376;-89
2021/08/01 22:31:52;;;;;;;5.65;4.68;;;17.80;98.50;;;;;;5043779;28;20301;-90
2021/08/01 22:34:20;;;;;;;6.28;4.30;;;17.70;98.60;;;;;;5029879;28;20033;-91
2021/08/01 22:36:53;;;;;;;5.20;4.45;;;17.70;98.60;;;;;;5047431;28;20045;-90
2021/08/01 22:39:21;;;;;;;6.30;4.53;;;17.70;98.70;;;;;;5021419;28;20041;-91
2021/08/01 22:41:48;;;;;;;5.78;5.18;;;17.70;98.70;;;;;;5023318;28;20050;-91
2021/08/01 22:44:19;;;;;;;6.72;4.60;;;17.70;98.80;;;;;;5035391;28;20060;-91
2021/08/01 22:46:46;;;;;;;10.00;4.40;;;17.70;99.00;;;;;;5032192;28;20041;-90
2021/08/01 22:49:12;;;;;;;7.10;5.10;;;17.70;99.00;;;;;;5021174;28;20346;-90
2021/08/01 22:51:41;;;;;;;6.90;5.28;;;17.70;99.10;;;;;;5040857;28;20084;-91
2021/08/01 22:54:13;;;;;;;6.30;5.30;;;17.70;99.10;;;;;;5036857;28;20033;-91
2021/08/01 22:56:41;;;;;;;14.38;5.75;;;17.70;99.00;;;;;;5021106;28;20096;-91
2021/08/01 22:59:06;;;;;;;6.75;5.45;;;17.70;99.00;;;;;;5025475;28;20120;-91
2021/08/01 23:01:37;;;;;;;5.85;4.80;;;17.70;99.10;;;;;;5020611;28;20080;-91
2021/08/01 23:04:07;;;;;;;6.97;5.93;;;17.70;99.10;;;;;;5039473;28;20037;-90
2021/08/01 23:06:35;;;;;;;10.07;6.53;;;17.70;99.10;;;;;;5038932;28;20120;-90
2021/08/01 23:09:25;;;;;;;6.45;4.88;;;17.60;99.10;;;;;;5025034;28;20053;-91
2021/08/01 23:12:25;;;;;;;8.15;4.20;;;17.60;99.00;;;;;;5019508;28;20042;-90
2021/08/01 23:15:12;;;;;;;5.63;4.43;;;17.60;99.00;;;;;;4992585;28;20377;-91
2021/08/01 23:18:04;;;;;;;7.03;5.15;;;17.60;99.10;;;;;;5016928;28;20039;-91
2021/08/01 23:20:33;;;;;;;5.88;4.90;;;17.60;99.10;;;;;;5019106;28;20393;-91
2021/08/01 23:23:04;;;;;;;7.03;5.28;;;17.50;99.10;;;;;;5038233;28;20041;-91
2021/08/01 23:25:31;;;;;;;6.22;5.15;;;17.50;99.20;;;;;;5053418;28;20032;-91
2021/08/01 23:27:59;;;;;;;6.95;5.90;;;17.50;99.20;;;;;;5033092;28;20046;-90
2021/08/01 23:30:25;;;;;;;5.85;4.88;;;17.50;99.10;;;;;;5042407;28;20053;-91
2021/08/01 23:32:51;;;;;;;9.07;5.80;;;17.40;99.10;;;;;;5030225;28;20069;-90
2021/08/01 23:35:17;;;;;;;6.28;5.25;;;17.40;99.20;;;;;;5031555;28;20091;-91
2021/08/01 23:37:45;;;;;;;6.30;5.60;;;17.40;99.30;;;;;;5019718;28;20421;-91
2021/08/01 23:40:13;;;;;;;7.50;5.80;;;17.40;99.40;;;;;;5020126;28;20038;-91
2021/08/01 23:42:49;;;;;;;8.82;5.18;;;17.40;99.50;;;;;;5034922;28;20037;-90
2021/08/01 23:45:16;;;;;;;8.57;5.53;;;17.50;99.60;;;;;;5035179;28;20033;-89
2021/08/01 23:47:43;;;;;;;6.75;5.57;;;17.50;99.70;;;;;;5018581;28;20034;-90
2021/08/01 23:50:13;;;;;;;10.23;6.50;;;17.50;99.80;;;;;;5025991;28;20030;-90
2021/08/01 23:53:05;;;;;;;7.03;5.47;;;17.50;99.80;;;;;;5018929;28;20042;-89
2021/08/01 23:56:01;;;;;;;8.10;6.18;;;17.60;99.90;;;;;;5019660;28;20033;-90
2021/08/01 23:58:55;;;;;;;8.75;6.40;;;17.60;99.90;;;;;;5033476;28;20097;-90
